Time;durP1;ratioP1;P1;durP2;ratioP2;P2;SDS_P1;SDS_P2;PMS_P1;PMS_P2;Temp;Humidity;BMP_temperature;BMP_pressure;BME280_temperature;BME280_humidity;BME280_pressure;Samples;Min_cycle;Max_cycle;Signal;HPM_P1;HPM_P2
2023/01/16 00:01:27;;;;;;;;;;;27.90;95.30;;;;;;5093476;28;19908;-70
2023/01/16 00:03:54;;;;;;;;;;;28.30;95.00;;;;;;5093029;28;19915;-70
2023/01/16 00:06:21;;;;;;;;;;;28.30;94.80;;;;;;5094043;28;19908;-69
2023/01/16 00:08:48;;;;;;;;;;;28.30;94.80;;;;;;5098314;28;19962;-73
2023/01/16 00:11:15;;;;;;;;;;;28.40;94.60;;;;;;5094570;28;19912;-70
2023/01/16 00:13:42;;;;;;;;;;;28.60;94.10;;;;;;5077791;28;19973;-72
2023/01/16 00:16:08;;;;;;;;;;;28.70;93.60;;;;;;5079512;28;19973;-71
2023/01/16 00:18:35;;;;;;;;;;;28.60;93.80;;;;;;5075809;28;19955;-67
2023/01/16 00:21:02;;;;;;;;;;;28.50;94.10;;;;;;5074383;28;19908;-70
2023/01/16 00:23:29;;;;;;;;;;;28.50;94.10;;;;;;5073147;28;19909;-68
2023/01/16 00:25:55;;;;;;;;;;;28.40;93.40;;;;;;5082605;28;19981;-68
2023/01/16 00:28:22;;;;;;;;;;;28.40;93.80;;;;;;5073424;28;19947;-67
2023/01/16 00:30:49;;;;;;;;;;;28.60;93.30;;;;;;5079328;28;20011;-67
2023/01/16 00:33:16;;;;;;;;;;;28.80;93.20;;;;;;5091860;28;19924;-67
2023/01/16 00:35:42;;;;;;;;;;;28.90;93.40;;;;;;5084379;28;19919;-69
2023/01/16 00:38:09;;;;;;;;;;;28.80;94.50;;;;;;5092157;28;20008;-71
2023/01/16 00:40:36;;;;;;;;;;;28.90;95.00;;;;;;5092969;28;19915;-71
2023/01/16 00:43:02;;;;;;;;;;;28.90;94.70;;;;;;5092986;28;19989;-73
2023/01/16 00:45:29;;;;;;;;;;;28.80;95.20;;;;;;5092955;28;20002;-71
2023/01/16 00:47:56;;;;;;;;;;;29.00;95.10;;;;;;5092706;28;19914;-73
2023/01/16 00:50:22;;;;;;;;;;;29.10;94.80;;;;;;5092826;28;19908;-69
2023/01/16 00:52:49;;;;;;;;;;;29.30;94.60;;;;;;5092921;28;20443;-70
2023/01/16 00:55:15;;;;;;;;;;;29.00;94.70;;;;;;5092861;28;19994;-75
2023/01/16 00:57:42;;;;;;;;;;;29.10;94.30;;;;;;5092561;28;19912;-70
2023/01/16 01:00:09;;;;;;;;;;;29.20;93.30;;;;;;5092951;28;19933;-73
2023/01/16 01:02:36;;;;;;;;;;;29.50;92.70;;;;;;5092898;28;19955;-72
2023/01/16 01:05:02;;;;;;;;;;;29.60;93.00;;;;;;5092877;28;20293;-73
2023/01/16 01:07:29;;;;;;;;;;;29.50;93.30;;;;;;5093094;28;20260;-71
2023/01/16 01:09:56;;;;;;;;;;;29.50;93.40;;;;;;5092531;28;20383;-67
2023/01/16 01:12:22;;;;;;;;;;;29.70;93.00;;;;;;5092714;28;19950;-72
2023/01/16 01:14:49;;;;;;;;;;;29.80;92.30;;;;;;5092386;28;19977;-72
2023/01/16 01:17:16;;;;;;;;;;;29.40;93.00;;;;;;5095487;28;19916;-69
2023/01/16 01:19:43;;;;;;;;;;;29.40;92.80;;;;;;5096139;28;19910;-70
2023/01/16 01:22:10;;;;;;;;;;;29.30;92.60;;;;;;5096356;28;19937;-70
2023/01/16 01:24:37;;;;;;;;;;;29.30;92.00;;;;;;5096340;28;19909;-69
2023/01/16 01:27:03;;;;;;;;;;;29.40;92.20;;;;;;5095042;28;19958;-69
2023/01/16 01:29:30;;;;;;;;;;;29.70;92.10;;;;;;5083708;28;20345;-73
2023/01/16 01:31:57;;;;;;;;;;;30.00;91.50;;;;;;5079865;28;20425;-74
2023/01/16 01:34:23;;;;;;;;;;;30.10;91.10;;;;;;5081942;28;19921;-71
2023/01/16 01:36:50;;;;;;;;;;;30.10;91.10;;;;;;5075725;28;20319;-69
2023/01/16 01:39:16;;;;;;;;;;;30.20;90.50;;;;;;5076448;28;19919;-68
2023/01/16 01:41:43;;;;;;;;;;;30.20;90.60;;;;;;5076895;28;20009;-72
2023/01/16 01:44:48;;;;;;;;;;;30.30;88.20;;;;;;5075254;28;20373;-73
2023/01/16 01:47:17;;;;;;;;;;;30.20;88.70;;;;;;5046360;28;19914;-75
2023/01/16 01:49:44;;;;;;;;;;;30.10;88.40;;;;;;5051407;28;19913;-70
2023/01/16 01:52:11;;;;;;;;;;;30.20;89.20;;;;;;5062413;28;20282;-74
2023/01/16 01:54:46;;;;;;;;;;;30.10;89.10;;;;;;5091705;28;19920;-69
2023/01/16 01:57:16;;;;;;;;;;;29.90;89.20;;;;;;5075280;28;19919;-74
2023/01/16 01:59:46;;;;;;;;;;;30.10;89.00;;;;;;5075349;28;19909;-72
2023/01/16 02:02:18;;;;;;;;;;;30.20;88.20;;;;;;5075277;28;19916;-72
2023/01/16 02:04:46;;;;;;;;;;;30.60;87.70;;;;;;5084755;28;19912;-70
2023/01/16 02:07:14;;;;;;;;;;;30.90;87.50;;;;;;5083239;28;20320;-71
2023/01/16 02:09:41;;;;;;;;;;;31.20;87.30;;;;;;5076031;28;19915;-73
2023/01/16 02:12:09;;;;;;;;;;;31.30;86.40;;;;;;5074729;28;20003;-74
2023/01/16 02:14:37;;;;;;;;;;;31.10;87.00;;;;;;5086700;28;20322;-75
2023/01/16 02:19:52;;;;;;;;;;;31.60;86.00;;;;;;5081286;28;19934;-69
2023/01/16 02:22:25;;;;;;;;;;;31.60;84.80;;;;;;5074684;28;19951;-71
2023/01/16 02:25:10;;;;;;;;;;;31.70;83.50;;;;;;5089523;28;19962;-69
2023/01/16 02:27:45;;;;;;;;;;;31.50;84.60;;;;;;5074010;28;19936;-70
2023/01/16 02:30:39;;;;;;;;;;;31.50;83.70;;;;;;5074030;28;19912;-71
2023/01/16 02:33:11;;;;;;;;;;;31.70;82.60;;;;;;5080898;28;20047;-72
2023/01/16 02:35:41;;;;;;;;;;;31.60;82.70;;;;;;5094584;28;20367;-68
2023/01/16 02:38:46;;;;;;;;;;;31.60;84.90;;;;;;5094362;28;19912;-69
2023/01/16 02:41:26;;;;;;;;;;;32.00;83.70;;;;;;5051479;28;19951;-70
2023/01/16 02:43:57;;;;;;;;;;;32.40;82.90;;;;;;5052111;28;20055;-71
2023/01/16 02:46:24;;;;;;;;;;;32.40;83.40;;;;;;5064829;28;19908;-71
2023/01/16 02:49:08;;;;;;;;;;;31.90;84.50;;;;;;5074413;28;19909;-73
2023/01/16 02:51:35;;;;;;;;;;;31.50;84.70;;;;;;5074454;28;19908;-71
2023/01/16 02:54:10;;;;;;;;;;;31.70;85.30;;;;;;5088384;28;19916;-68
2023/01/16 02:56:57;;;;;;;;;;;31.90;85.40;;;;;;5094135;28;19908;-72
2023/01/16 02:59:24;;;;;;;;;;;32.00;84.50;;;;;;5094088;28;19915;-73
2023/01/16 03:01:51;;;;;;;;;;;32.10;84.60;;;;;;5094394;28;19991;-73
2023/01/16 03:04:36;;;;;;;;;;;31.80;83.90;;;;;;5094034;28;20007;-72
2023/01/16 03:07:10;;;;;;;;;;;31.70;85.00;;;;;;5094331;28;19977;-70
2023/01/16 03:09:59;;;;;;;;;;;32.10;83.00;;;;;;5093929;28;19912;-74
2023/01/16 03:12:34;;;;;;;;;;;31.90;82.90;;;;;;5093752;28;19934;-69
2023/01/16 03:15:19;;;;;;;;;;;32.30;83.90;;;;;;5094289;28;20003;-69
2023/01/16 03:18:08;;;;;;;;;;;33.00;85.20;;;;;;5094149;28;20543;-70
2023/01/16 03:20:35;;;;;;;;;;;33.10;82.30;;;;;;5088218;28;19994;-73
2023/01/16 03:23:34;;;;;;;;;;;32.20;84.20;;;;;;5093605;28;20349;-70
2023/01/16 03:26:29;;;;;;;;;;;31.90;86.10;;;;;;5069874;28;19908;-70
2023/01/16 03:29:02;;;;;;;;;;;32.00;87.70;;;;;;5088553;28;19954;-74
2023/01/16 03:31:33;;;;;;;;;;;32.40;85.40;;;;;;5093837;28;19915;-76
2023/01/16 03:34:03;;;;;;;;;;;32.90;84.00;;;;;;5093200;28;19924;-74
2023/01/16 03:36:38;;;;;;;;;;;33.70;83.00;;;;;;5093470;28;19908;-70
2023/01/16 03:39:06;;;;;;;;;;;33.70;82.10;;;;;;5093162;28;20361;-73
2023/01/16 03:41:34;;;;;;;;;;;33.40;82.30;;;;;;5093357;28;20371;-72
2023/01/16 03:44:04;;;;;;;;;;;33.10;82.70;;;;;;5093084;28;20383;-73
2023/01/16 03:46:33;;;;;;;;;;;33.00;84.90;;;;;;5093031;28;19908;-70
2023/01/16 03:49:03;;;;;;;;;;;32.90;83.70;;;;;;5091950;28;19912;-71
2023/01/16 03:51:32;;;;;;;;;;;32.70;84.00;;;;;;5093362;28;19999;-76
2023/01/16 03:54:01;;;;;;;;;;;32.90;84.60;;;;;;5092985;28;19919;-67
2023/01/16 03:56:37;;;;;;;;;;;34.10;81.80;;;;;;5093042;28;19944;-68
2023/01/16 03:59:03;;;;;;;;;;;34.40;80.60;;;;;;5092839;28;19995;-71
2023/01/16 04:01:59;;;;;;;;;;;34.60;80.60;;;;;;5093048;28;19989;-71
2023/01/16 04:04:29;;;;;;;;;;;35.80;78.70;;;;;;5053067;28;19909;-76
2023/01/16 04:06:58;;;;;;;;;;;36.00;76.90;;;;;;5081433;28;19915;-73
2023/01/16 04:09:29;;;;;;;;;;;37.20;75.80;;;;;;5092078;28;20019;-71
2023/01/16 04:11:58;;;;;;;;;;;38.60;72.00;;;;;;5092709;28;19973;-74
2023/01/16 04:14:26;;;;;;;;;;;37.70;73.00;;;;;;5092939;28;19927;-75
2023/01/16 04:16:52;;;;;;;;;;;36.00;75.90;;;;;;5092658;28;19908;-71
2023/01/16 04:19:21;;;;;;;;;;;34.40;78.70;;;;;;5092622;28;19914;-72
2023/01/16 04:21:48;;;;;;;;;;;33.70;80.20;;;;;;5092670;28;20431;-72
2023/01/16 04:24:16;;;;;;;;;;;32.90;81.60;;;;;;5092576;28;19999;-68
2023/01/16 04:26:42;;;;;;;;;;;31.70;84.20;;;;;;5092447;28;19977;-69
2023/01/16 04:29:09;;;;;;;;;;;30.70;87.00;;;;;;5092856;28;19915;-68
2023/01/16 04:31:35;;;;;;;;;;;30.50;87.80;;;;;;5092734;28;19908;-71
2023/01/16 04:34:02;;;;;;;;;;;30.40;88.10;;;;;;5092571;28;19927;-69
2023/01/16 04:36:30;;;;;;;;;;;30.30;88.60;;;;;;5092378;28;19908;-69
2023/01/16 04:38:57;;;;;;;;;;;30.40;88.10;;;;;;5092359;28;19908;-73
2023/01/16 04:41:36;;;;;;;;;;;29.70;90.10;;;;;;5092757;28;20380;-72
2023/01/16 04:44:07;;;;;;;;;;;29.10;90.80;;;;;;5092829;28;20010;-69
2023/01/16 04:46:33;;;;;;;;;;;29.70;90.80;;;;;;5092301;28;19916;-68
2023/01/16 04:49:00;;;;;;;;;;;31.00;88.00;;;;;;5092571;28;19912;-72
2023/01/16 04:51:28;;;;;;;;;;;31.10;87.20;;;;;;5096623;28;19913;-71
2023/01/16 04:53:55;;;;;;;;;;;30.80;87.30;;;;;;5096879;28;19916;-73
2023/01/16 04:56:22;;;;;;;;;;;29.60;90.10;;;;;;5096551;28;20454;-69
2023/01/16 04:58:50;;;;;;;;;;;29.70;90.80;;;;;;5096603;28;19940;-72
2023/01/16 05:01:18;;;;;;;;;;;31.10;87.20;;;;;;5096786;28;20000;-73
2023/01/16 05:03:44;;;;;;;;;;;30.80;87.20;;;;;;5096644;28;19908;-74
2023/01/16 05:06:11;;;;;;;;;;;30.70;87.00;;;;;;5096245;28;20309;-70
2023/01/16 05:08:37;;;;;;;;;;;31.20;85.70;;;;;;5096527;28;19908;-73
2023/01/16 05:11:04;;;;;;;;;;;31.60;86.90;;;;;;5096510;28;19912;-73
2023/01/16 05:13:31;;;;;;;;;;;31.80;86.00;;;;;;5094532;28;19916;-72
2023/01/16 05:15:57;;;;;;;;;;;32.90;84.00;;;;;;5094568;28;19961;-72
2023/01/16 05:18:24;;;;;;;;;;;34.20;81.50;;;;;;5097056;28;20258;-73
2023/01/16 05:20:51;;;;;;;;;;;33.70;80.90;;;;;;5104282;28;19908;-73
2023/01/16 05:23:18;;;;;;;;;;;32.80;81.90;;;;;;5106333;28;19955;-73
2023/01/16 05:25:44;;;;;;;;;;;33.00;83.90;;;;;;5102248;28;19908;-75
2023/01/16 05:28:11;;;;;;;;;;;34.20;80.50;;;;;;5102455;28;19908;-73
2023/01/16 05:30:38;;;;;;;;;;;34.50;79.70;;;;;;5101467;28;19930;-75
2023/01/16 05:33:06;;;;;;;;;;;33.30;82.60;;;;;;5104465;28;19920;-73
2023/01/16 05:35:33;;;;;;;;;;;33.30;81.30;;;;;;5104001;28;19909;-74
2023/01/16 05:37:59;;;;;;;;;;;34.30;82.30;;;;;;5098332;28;19955;-68
2023/01/16 05:40:26;;;;;;;;;;;35.10;79.60;;;;;;5097301;28;20011;-68
2023/01/16 05:42:52;;;;;;;;;;;35.20;79.50;;;;;;5096024;28;19908;-71
2023/01/16 05:45:19;;;;;;;;;;;34.90;79.30;;;;;;5096080;28;19915;-74
2023/01/16 05:47:46;;;;;;;;;;;35.00;80.80;;;;;;5096056;28;19908;-72
2023/01/16 05:50:12;;;;;;;;;;;35.70;79.70;;;;;;5096093;28;19954;-74
2023/01/16 05:52:39;;;;;;;;;;;35.60;78.10;;;;;;5095794;28;19931;-75
2023/01/16 05:55:06;;;;;;;;;;;34.50;79.60;;;;;;5095242;28;19969;-68
2023/01/16 05:57:32;;;;;;;;;;;33.50;82.10;;;;;;5095177;28;19953;-73
2023/01/16 05:59:59;;;;;;;;;;;33.00;82.30;;;;;;5095607;28;19908;-73
2023/01/16 06:02:26;;;;;;;;;;;33.60;80.00;;;;;;5094660;28;19908;-72
2023/01/16 06:04:52;;;;;;;;;;;33.70;80.80;;;;;;5095138;28;19908;-72
2023/01/16 06:07:19;;;;;;;;;;;33.10;82.40;;;;;;5095359;28;19909;-71
2023/01/16 06:09:45;;;;;;;;;;;33.10;83.70;;;;;;5095321;28;19919;-71
2023/01/16 06:12:16;;;;;;;;;;;32.10;84.70;;;;;;5095134;28;19961;-69
2023/01/16 06:14:43;;;;;;;;;;;31.30;86.80;;;;;;5094559;28;19916;-72
2023/01/16 06:17:10;;;;;;;;;;;30.60;88.70;;;;;;5094941;28;20394;-69
2023/01/16 06:19:37;;;;;;;;;;;30.30;90.50;;;;;;5095245;28;19914;-71
2023/01/16 06:22:03;;;;;;;;;;;30.80;90.20;;;;;;5094870;28;19955;-68
2023/01/16 06:24:30;;;;;;;;;;;30.50;89.50;;;;;;5094996;28;20346;-71
2023/01/16 06:26:56;;;;;;;;;;;29.90;90.80;;;;;;5095191;28;20319;-71
2023/01/16 06:29:23;;;;;;;;;;;29.70;90.70;;;;;;5094859;28;19912;-72
2023/01/16 06:31:50;;;;;;;;;;;29.50;91.30;;;;;;5094897;28;19954;-72
2023/01/16 06:34:16;;;;;;;;;;;29.50;91.50;;;;;;5094289;28;19951;-73
2023/01/16 06:36:45;;;;;;;;;;;29.10;91.10;;;;;;5094692;28;19908;-71
2023/01/16 06:39:12;;;;;;;;;;;29.10;91.40;;;;;;5095364;28;20254;-67
2023/01/16 06:41:39;;;;;;;;;;;29.00;91.60;;;;;;5094641;28;19970;-71
2023/01/16 06:44:05;;;;;;;;;;;29.10;91.20;;;;;;5094205;28;20426;-74
2023/01/16 06:46:32;;;;;;;;;;;28.70;91.70;;;;;;5094559;28;19904;-73
2023/01/16 06:48:59;;;;;;;;;;;28.30;92.30;;;;;;5094676;28;19969;-72
2023/01/16 06:51:25;;;;;;;;;;;28.50;92.30;;;;;;5094453;28;20343;-71
2023/01/16 06:53:52;;;;;;;;;;;28.70;92.10;;;;;;5093537;28;19959;-72
2023/01/16 06:56:19;;;;;;;;;;;29.00;91.20;;;;;;5093642;28;19915;-69
2023/01/16 06:58:45;;;;;;;;;;;29.10;90.90;;;;;;5094269;28;20268;-72
2023/01/16 07:01:12;;;;;;;;;;;29.10;92.00;;;;;;5094424;28;20258;-72
2023/01/16 07:03:38;;;;;;;;;;;29.40;90.80;;;;;;5094142;28;19908;-73
2023/01/16 07:06:05;;;;;;;;;;;29.10;91.10;;;;;;5091626;28;19912;-74
2023/01/16 07:08:33;;;;;;;;;;;28.60;91.90;;;;;;5085080;28;20381;-68
2023/01/16 07:11:00;;;;;;;;;;;28.50;91.60;;;;;;5073059;28;20365;-72
2023/01/16 07:13:28;;;;;;;;;;;28.30;92.30;;;;;;5089318;28;19934;-75
2023/01/16 07:24:11;;;;;;;;;;;28.10;93.10;;;;;;5075081;28;19922;-70
2023/01/16 07:26:40;;;;;;;;;;;28.00;93.00;;;;;;5078359;28;20404;-69
2023/01/16 07:29:07;;;;;;;;;;;27.80;93.40;;;;;;5091954;28;19961;-75
2023/01/16 07:31:34;;;;;;;;;;;27.60;93.30;;;;;;5090781;28;19966;-77
2023/01/16 07:34:00;;;;;;;;;;;27.50;93.00;;;;;;5082317;28;19920;-69
2023/01/16 07:36:27;;;;;;;;;;;27.50;93.40;;;;;;5072774;28;19970;-76
2023/01/16 07:38:54;;;;;;;;;;;27.40;93.20;;;;;;5075665;28;20019;-72
2023/01/16 07:41:20;;;;;;;;;;;27.30;93.20;;;;;;5079585;28;20561;-70
2023/01/16 07:43:47;;;;;;;;;;;27.20;93.30;;;;;;5086696;28;20023;-73
2023/01/16 07:46:13;;;;;;;;;;;27.30;93.10;;;;;;5079397;28;19919;-76
2023/01/16 07:48:40;;;;;;;;;;;27.40;93.10;;;;;;5085802;28;19912;-74
2023/01/16 07:51:07;;;;;;;;;;;27.40;93.00;;;;;;5088898;28;19912;-76
2023/01/16 07:53:33;;;;;;;;;;;27.50;92.90;;;;;;5078304;28;19912;-76
2023/01/16 07:56:01;;;;;;;;;;;27.70;92.50;;;;;;5088833;28;20372;-74
2023/01/16 07:58:28;;;;;;;;;;;27.70;92.40;;;;;;5097496;28;19970;-73
2023/01/16 08:00:55;;;;;;;;;;;27.80;92.30;;;;;;5091346;28;20062;-74
2023/01/16 08:03:22;;;;;;;;;;;27.60;92.70;;;;;;5083539;28;19912;-71
2023/01/16 08:05:50;;;;;;;;;;;27.40;93.40;;;;;;5085195;28;20384;-72
2023/01/16 08:08:16;;;;;;;;;;;27.30;93.80;;;;;;5091106;28;20303;-72
2023/01/16 08:10:43;;;;;;;;;;;27.20;94.20;;;;;;5079885;28;19912;-70
2023/01/16 08:13:10;;;;;;;;;;;27.10;93.90;;;;;;5073772;28;19916;-75
2023/01/16 08:15:36;;;;;;;;;;;26.80;94.40;;;;;;5075867;28;20393;-73
2023/01/16 08:18:03;;;;;;;;;;;26.90;94.60;;;;;;5078976;28;19923;-76
2023/01/16 08:20:30;;;;;;;;;;;26.90;94.90;;;;;;5088188;28;20377;-72
2023/01/16 08:22:57;;;;;;;;;;;26.70;95.20;;;;;;5083286;28;19973;-69
2023/01/16 08:25:24;;;;;;;;;;;26.50;95.70;;;;;;5102872;28;19911;-69
2023/01/16 08:27:51;;;;;;;;;;;26.40;95.80;;;;;;5109146;28;20271;-69
2023/01/16 08:30:18;;;;;;;;;;;26.20;95.90;;;;;;5111407;28;19904;-71
2023/01/16 08:32:45;;;;;;;;;;;26.10;96.20;;;;;;5112449;28;20283;-75
2023/01/16 08:35:15;;;;;;;;;;;26.00;96.20;;;;;;5110524;28;21385;-69
2023/01/16 08:37:48;;;;;;;;;;;26.00;96.10;;;;;;5111965;28;19911;-70
2023/01/16 08:40:15;;;;;;;;;;;25.80;96.60;;;;;;5113099;28;19915;-75
2023/01/16 08:53:41;;;;;;;;;;;25.60;96.90;;;;;;5092388;28;19922;-74
2023/01/16 08:56:08;;;;;;;;;;;25.40;97.20;;;;;;5092516;28;20002;-72
2023/01/16 08:58:34;;;;;;;;;;;25.40;97.00;;;;;;5092596;28;19908;-72
2023/01/16 09:01:01;;;;;;;;;;;25.40;97.20;;;;;;5091472;28;19908;-72
2023/01/16 09:03:28;;;;;;;;;;;25.30;97.40;;;;;;5092808;28;20288;-72
2023/01/16 09:05:54;;;;;;;;;;;25.20;97.70;;;;;;5091258;28;19912;-72
2023/01/16 09:08:21;;;;;;;;;;;25.20;97.70;;;;;;5092992;28;20257;-75
2023/01/16 09:13:51;;;;;;;;;;;25.10;98.00;;;;;;5072349;28;19916;-76
2023/01/16 09:16:18;;;;;;;;;;;25.00;98.30;;;;;;5092364;28;19909;-76
2023/01/16 09:18:45;;;;;;;;;;;25.10;98.40;;;;;;5092645;28;20257;-71
2023/01/16 09:21:11;;;;;;;;;;;25.00;98.40;;;;;;5092320;28;20374;-74
2023/01/16 09:23:40;;;;;;;;;;;25.00;98.30;;;;;;5092634;28;19908;-75
2023/01/16 09:26:07;;;;;;;;;;;25.00;98.40;;;;;;5088310;28;20007;-72
2023/01/16 09:28:33;;;;;;;;;;;25.10;98.50;;;;;;5090134;28;19912;-71
2023/01/16 09:31:00;;;;;;;;;;;25.10;98.60;;;;;;5091404;28;19912;-69
2023/01/16 09:33:27;;;;;;;;;;;25.10;98.00;;;;;;5086584;28;19924;-70
2023/01/16 09:35:54;;;;;;;;;;;25.10;98.10;;;;;;5088624;28;19916;-69
2023/01/16 09:38:22;;;;;;;;;;;25.10;98.10;;;;;;5095090;28;19932;-75
2023/01/16 09:40:56;;;;;;;;;;;25.00;98.50;;;;;;5088607;28;19912;-74
2023/01/16 09:43:43;;;;;;;;;;;24.90;98.60;;;;;;5091371;28;20000;-71
2023/01/16 09:46:20;;;;;;;;;;;24.90;98.90;;;;;;5088192;28;19913;-68
2023/01/16 09:48:50;;;;;;;;;;;24.90;99.00;;;;;;5090385;28;19911;-68
2023/01/16 09:51:20;;;;;;;;;;;24.90;99.30;;;;;;5093097;28;19926;-74
2023/01/16 09:59:17;;;;;;;;;;;24.80;99.50;;;;;;5087374;28;19912;-74
2023/01/16 10:01:46;;;;;;;;;;;24.80;99.60;;;;;;5089201;28;19912;-76
2023/01/16 10:04:18;;;;;;;;;;;24.80;99.70;;;;;;5096314;28;19927;-71
2023/01/16 10:06:57;;;;;;;;;;;24.70;99.60;;;;;;5080363;28;19913;-72
2023/01/16 10:09:33;;;;;;;;;;;24.60;99.50;;;;;;5086794;28;20323;-71
2023/01/16 10:12:04;;;;;;;;;;;24.60;99.50;;;;;;5094423;28;19936;-72
2023/01/16 10:14:37;;;;;;;;;;;24.70;99.50;;;;;;5094762;28;19955;-70
2023/01/16 10:17:36;;;;;;;;;;;24.60;99.50;;;;;;5086358;28;20254;-73
2023/01/16 10:20:21;;;;;;;;;;;24.60;99.50;;;;;;5060013;28;19917;-70
2023/01/16 10:23:03;;;;;;;;;;;24.60;99.90;;;;;;5072972;28;19912;-69
2023/01/16 10:25:46;;;;;;;;;;;24.60;99.70;;;;;;5073220;28;19917;-68
2023/01/16 10:28:24;;;;;;;;;;;24.60;99.50;;;;;;5073202;28;19915;-73
2023/01/16 10:30:53;;;;;;;;;;;24.50;99.70;;;;;;5073321;28;19967;-70
2023/01/16 10:33:27;;;;;;;;;;;24.50;99.90;;;;;;5073396;28;19920;-73
2023/01/16 10:35:55;;;;;;;;;;;24.30;99.70;;;;;;5091402;28;20375;-76
2023/01/16 10:49:25;;;;;;;;;;;24.30;99.60;;;;;;5085134;28;19909;-75
2023/01/16 10:49:26;;;;;;;;;;;24.20;99.90;;;;;;5073318;28;19916;-73
2023/01/16 10:51:53;;;;;;;;;;;24.20;99.90;;;;;;5072704;28;19916;-72
2023/01/16 10:54:19;;;;;;;;;;;24.20;99.90;;;;;;5073176;28;20282;-71
2023/01/16 10:56:46;;;;;;;;;;;24.10;99.90;;;;;;5072729;28;19909;-75
2023/01/16 10:59:13;;;;;;;;;;;24.10;99.90;;;;;;5072955;28;19909;-75
2023/01/16 11:01:41;;;;;;;;;;;24.10;99.90;;;;;;5072857;28;19995;-73
2023/01/16 11:04:10;;;;;;;;;;;24.10;99.90;;;;;;5073049;28;19995;-75
2023/01/16 11:06:40;;;;;;;;;;;24.10;99.90;;;;;;5076056;28;19912;-75
2023/01/16 11:09:16;;;;;;;;;;;24.10;99.90;;;;;;5088140;28;19913;-74
2023/01/16 11:20:04;;;;;;;;;;;24.00;99.90;;;;;;5090304;28;19919;-74
2023/01/16 11:22:30;;;;;;;;;;;24.00;99.90;;;;;;5091065;28;19912;-73
2023/01/16 11:24:57;;;;;;;;;;;24.00;99.90;;;;;;5092230;28;19908;-75
2023/01/16 11:27:26;;;;;;;;;;;24.00;99.90;;;;;;5091360;28;19919;-73
2023/01/16 11:29:54;;;;;;;;;;;24.00;99.90;;;;;;5091712;28;19908;-76
2023/01/16 11:32:24;;;;;;;;;;;24.00;99.90;;;;;;5091805;28;19935;-75
2023/01/16 11:34:54;;;;;;;;;;;24.00;99.90;;;;;;5090038;28;19958;-74
2023/01/16 11:37:22;;;;;;;;;;;24.00;99.90;;;;;;5092442;28;19912;-74
2023/01/16 11:39:51;;;;;;;;;;;24.00;99.90;;;;;;5092531;28;19912;-72
2023/01/16 12:02:20;;;;;;;;;;;23.80;99.90;;;;;;5092701;28;19998;-73
2023/01/16 12:05:53;;;;;;;;;;;23.80;99.90;;;;;;5093062;28;19908;-74
2023/01/16 12:07:53;;;;;;;;;;;23.70;99.90;;;;;;5092732;28;19954;-74
2023/01/16 12:10:24;;;;;;;;;;;23.80;99.90;;;;;;5092619;28;19912;-74
2023/01/16 12:16:02;;;;;;;;;;;23.70;99.90;;;;;;5092582;28;19961;-73
2023/01/16 12:18:35;;;;;;;;;;;23.60;99.90;;;;;;5087182;28;19908;-74
2023/01/16 12:21:05;;;;;;;;;;;23.70;99.90;;;;;;5092771;28;20003;-72
2023/01/16 12:23:37;;;;;;;;;;;23.60;99.90;;;;;;5092528;28;19916;-74
2023/01/16 12:26:19;;;;;;;;;;;23.60;99.90;;;;;;5092038;28;19914;-74
2023/01/16 12:28:54;;;;;;;;;;;23.60;99.90;;;;;;5092142;28;19995;-74
2023/01/16 12:31:38;;;;;;;;;;;23.60;99.90;;;;;;5091899;28;19948;-72
2023/01/16 12:34:22;;;;;;;;;;;23.60;99.90;;;;;;5092549;28;19920;-72
2023/01/16 12:37:12;;;;;;;;;;;23.60;99.90;;;;;;5092150;28;19908;-74
2023/01/16 12:39:53;;;;;;;;;;;23.60;99.90;;;;;;5092362;28;19908;-73
2023/01/16 12:45:24;;;;;;;;;;;23.60;99.90;;;;;;5092335;28;20379;-73
2023/01/16 12:47:53;;;;;;;;;;;23.60;99.90;;;;;;5092093;28;19913;-73
2023/01/16 12:50:23;;;;;;;;;;;23.70;99.90;;;;;;5092623;28;19909;-72
2023/01/16 12:53:05;;;;;;;;;;;23.60;99.90;;;;;;5092524;28;20258;-68
2023/01/16 12:55:38;;;;;;;;;;;23.60;99.90;;;;;;5091955;28;20285;-69
2023/01/16 12:58:05;;;;;;;;;;;23.60;99.90;;;;;;5092150;28;19909;-68
2023/01/16 13:00:43;;;;;;;;;;;23.70;99.90;;;;;;5090459;28;20273;-68
2023/01/16 13:03:10;;;;;;;;;;;23.70;99.90;;;;;;5092211;28;20273;-69
2023/01/16 13:05:37;;;;;;;;;;;23.70;99.90;;;;;;5092033;28;19914;-69
2023/01/16 13:08:11;;;;;;;;;;;23.70;99.90;;;;;;5092504;28;19908;-67
2023/01/16 13:13:27;;;;;;;;;;;23.70;99.90;;;;;;5096226;28;19915;-69
2023/01/16 13:16:03;;;;;;;;;;;23.80;99.90;;;;;;5096103;28;19916;-69
2023/01/16 13:18:50;;;;;;;;;;;23.80;99.90;;;;;;5095959;28;20073;-69
2023/01/16 13:21:19;;;;;;;;;;;23.80;99.90;;;;;;5088661;28;19909;-70
2023/01/16 13:23:55;;;;;;;;;;;23.80;99.90;;;;;;5096276;28;19915;-67
2023/01/16 13:26:24;;;;;;;;;;;23.80;99.90;;;;;;5096048;28;19931;-72
2023/01/16 13:28:59;;;;;;;;;;;23.70;99.90;;;;;;5096149;28;19911;-71
2023/01/16 13:31:32;;;;;;;;;;;23.70;99.90;;;;;;5096026;28;20050;-73
2023/01/16 13:34:22;;;;;;;;;;;23.70;99.90;;;;;;5095776;28;19956;-69
2023/01/16 13:36:52;;;;;;;;;;;23.70;99.90;;;;;;5090146;28;19908;-71
2023/01/16 13:39:36;;;;;;;;;;;23.60;99.90;;;;;;5095269;28;19908;-73
2023/01/16 13:42:05;;;;;;;;;;;23.60;99.90;;;;;;5095328;28;20451;-73
2023/01/16 13:47:30;;;;;;;;;;;23.60;99.90;;;;;;5095126;28;19915;-71
2023/01/16 13:50:17;;;;;;;;;;;23.50;99.90;;;;;;5094996;28;19908;-72
2023/01/16 13:52:44;;;;;;;;;;;23.50;99.90;;;;;;5094892;28;19909;-71
2023/01/16 13:55:20;;;;;;;;;;;23.40;99.90;;;;;;5093619;28;20312;-73
2023/01/16 13:57:47;;;;;;;;;;;23.40;99.90;;;;;;5094853;28;20323;-73
2023/01/16 14:00:17;;;;;;;;;;;23.30;99.90;;;;;;5095008;28;19908;-72
2023/01/16 14:02:44;;;;;;;;;;;23.30;99.90;;;;;;5094917;28;19909;-72
2023/01/16 14:05:16;;;;;;;;;;;23.30;99.90;;;;;;5095111;28;19915;-73
2023/01/16 14:10:52;;;;;;;;;;;23.20;99.90;;;;;;5094451;28;20288;-71
2023/01/16 14:13:31;;;;;;;;;;;23.20;99.90;;;;;;5094924;28;20372;-74
2023/01/16 14:18:59;;;;;;;;;;;23.10;99.90;;;;;;5094897;28;19954;-73
2023/01/16 14:21:28;;;;;;;;;;;23.00;99.90;;;;;;5094879;28;19908;-72
2023/01/16 14:24:02;;;;;;;;;;;23.00;99.90;;;;;;5094106;28;19908;-74
2023/01/16 14:26:38;;;;;;;;;;;23.00;99.90;;;;;;5094492;28;19918;-74
2023/01/16 14:29:10;;;;;;;;;;;22.90;99.90;;;;;;5095121;28;19908;-73
2023/01/16 14:31:41;;;;;;;;;;;22.90;99.90;;;;;;5094925;28;19952;-73
2023/01/16 14:34:16;;;;;;;;;;;22.90;99.90;;;;;;5094610;28;19920;-72
2023/01/16 14:36:44;;;;;;;;;;;22.80;99.90;;;;;;5094398;28;19908;-73
2023/01/16 14:39:32;;;;;;;;;;;22.80;99.90;;;;;;5094557;28;19915;-71
2023/01/16 14:56:29;;;;;;;;;;;22.60;99.90;;;;;;5094529;28;20450;-71
2023/01/16 14:59:04;;;;;;;;;;;22.60;99.90;;;;;;5094153;28;19995;-71
2023/01/16 15:02:22;;;;;;;;;;;22.60;99.90;;;;;;5093577;28;19954;-72
2023/01/16 15:05:04;;;;;;;;;;;22.60;99.90;;;;;;5051030;28;20449;-69
2023/01/16 15:07:51;;;;;;;;;;;22.60;99.90;;;;;;5050982;28;19909;-72
2023/01/16 15:10:20;;;;;;;;;;;22.50;99.90;;;;;;5085316;28;20283;-72
2023/01/16 15:12:47;;;;;;;;;;;22.50;99.90;;;;;;5093278;28;19916;-72
2023/01/16 15:15:26;;;;;;;;;;;22.50;99.90;;;;;;5093911;28;20258;-73
2023/01/16 15:23:25;;;;;;;;;;;22.40;99.90;;;;;;5073307;28;20433;-72
2023/01/16 15:25:55;;;;;;;;;;;22.30;99.90;;;;;;5073048;28;20037;-73
2023/01/16 15:28:24;;;;;;;;;;;22.30;99.90;;;;;;5072387;28;19948;-75
2023/01/16 15:30:58;;;;;;;;;;;22.30;99.90;;;;;;5073504;28;19913;-73
2023/01/16 15:33:50;;;;;;;;;;;22.30;99.90;;;;;;5071887;28;19974;-73
2023/01/16 15:36:19;;;;;;;;;;;22.30;99.90;;;;;;5073060;28;20289;-72
2023/01/16 15:38:47;;;;;;;;;;;22.30;99.90;;;;;;5073264;28;19916;-70
2023/01/16 15:41:17;;;;;;;;;;;22.30;99.90;;;;;;5073097;28;19908;-72
2023/01/16 15:46:51;;;;;;;;;;;22.30;99.90;;;;;;5072971;28;19932;-72
2023/01/16 15:49:21;;;;;;;;;;;22.40;99.90;;;;;;5067430;28;20340;-73
2023/01/16 15:51:55;;;;;;;;;;;22.40;99.90;;;;;;5072693;28;19909;-71
2023/01/16 15:54:22;;;;;;;;;;;22.40;99.90;;;;;;5071213;28;20357;-73
2023/01/16 15:56:49;;;;;;;;;;;22.40;99.90;;;;;;5072516;28;19944;-73
2023/01/16 15:59:26;;;;;;;;;;;22.40;99.90;;;;;;5072680;28;19909;-70
2023/01/16 16:01:53;;;;;;;;;;;22.40;99.90;;;;;;5072237;28;19954;-74
2023/01/16 16:04:22;;;;;;;;;;;22.40;99.90;;;;;;5072366;28;19912;-69
2023/01/16 16:06:49;;;;;;;;;;;22.40;99.90;;;;;;5072620;28;19943;-72
2023/01/16 16:09:21;;;;;;;;;;;22.50;99.90;;;;;;5072582;28;19908;-70
2023/01/16 16:12:02;;;;;;;;;;;22.40;99.90;;;;;;5072214;28;19916;-72
2023/01/16 16:20:25;;;;;;;;;;;22.50;99.90;;;;;;5092566;28;19954;-72
2023/01/16 16:22:54;;;;;;;;;;;22.50;99.90;;;;;;5092737;28;20007;-73
2023/01/16 16:25:26;;;;;;;;;;;22.60;99.90;;;;;;5092276;28;20245;-72
2023/01/16 16:27:52;;;;;;;;;;;22.40;99.90;;;;;;5092439;28;19915;-72
2023/01/16 16:30:23;;;;;;;;;;;22.60;99.90;;;;;;5092650;28;19990;-72